Time;durP1;ratioP1;P1;durP2;ratioP2;P2;SDS_P1;SDS_P2;PMS_P1;PMS_P2;Temp;Humidity;BMP_temperature;BMP_pressure;BME280_temperature;BME280_humidity;BME280_pressure;Samples;Min_cycle;Max_cycle;Signal;HPM_P1;HPM_P2
2021/08/07 07:31:35;;;;;;;;;;;;;;;;;;;;;
2021/08/07 07:34:44;;;;;;;3.20;1.40;;;19.20;90.20;;;;;;5770475;24;20099;-92
2021/08/07 07:37:25;;;;;;;;;;;;;;;;;;;;;
2021/08/07 07:40:03;;;;;;;3.35;1.42;;;19.40;89.70;;;;;;5796005;24;20079;-87
2021/08/07 07:42:34;;;;;;;4.93;1.23;;;19.50;89.50;;;;;;6193347;22;20050;-87
2021/08/07 07:45:19;;;;;;;3.05;1.40;;;19.50;88.80;;;;;;6252990;22;20004;-90
2021/08/07 07:47:48;;;;;;;3.78;1.20;;;19.60;88.40;;;;;;6253255;22;20038;-88
2021/08/07 07:50:16;;;;;;;3.53;1.17;;;19.60;88.00;;;;;;6251700;22;20161;-90
2021/08/07 07:52:44;;;;;;;2.00;1.08;;;19.70;87.50;;;;;;6254137;22;20499;-88
2021/08/07 07:55:19;;;;;;;3.47;0.80;;;19.70;86.90;;;;;;6249484;23;20012;-89
2021/08/07 07:57:50;;;;;;;2.95;1.40;;;19.80;86.70;;;;;;6223603;23;20032;-89
2021/08/07 08:00:18;;;;;;;3.60;1.70;;;19.90;86.60;;;;;;6225011;23;20062;-89
2021/08/07 08:02:56;;;;;;;;;;;;;;;;;;;;;
2021/08/07 08:05:24;;;;;;;2.83;1.10;;;20.00;86.20;;;;;;6253491;23;20027;-89
2021/08/07 08:08:05;;;;;;;;;;;;;;;;;;;;;
2021/08/07 08:10:46;;;;;;;2.90;0.98;;;20.20;84.50;;;;;;6249462;23;20053;-91
2021/08/07 08:19:13;;;;;;;;;;;;;;;;;;;;;
2021/08/07 08:32:36;;;;;;;2.40;0.88;;;20.60;82.80;;;;;;6236532;22;20008;-93
2021/08/07 08:49:00;;;;;;;;;;;;;;;;;;;;;
2021/08/07 09:05:50;;;;;;;;;;;;;;;;;;;;;
2021/08/07 09:09:43;;;;;;;;;;;;;;;;;;;;;
2021/08/07 09:13:03;;;;;;;;;;;;;;;;;;;;;
2021/08/07 09:19:25;;;;;;;;;;;;;;;;;;;;;
2021/08/07 09:23:31;;;;;;;3.42;1.30;;;21.30;82.10;;;;;;6138040;23;20419;-93
2021/08/07 09:27:16;;;;;;;;;;;;;;;;;;;;;
2021/08/07 09:37:35;;;;;;;;;;;;;;;;;;;;;
2021/08/07 09:57:58;;;;;;;;;;;;;;;;;;;;;
2021/08/07 10:01:24;;;;;;;;;;;;;;;;;;;;;
2021/08/07 10:04:23;;;;;;;;;;;;;;;;;;;;;
2021/08/07 10:08:02;;;;;;;;;;;;;;;;;;;;;
2021/08/07 10:11:25;;;;;;;;;;;;;;;;;;;;;
2021/08/07 10:25:05;;;;;;;2.17;0.80;;;21.90;81.20;;;;;;6068845;23;20025;-92
2021/08/07 10:28:47;;;;;;;2.53;1.08;;;22.00;80.70;;;;;;6131990;23;20006;-91
2021/08/07 10:38:40;;;;;;;;;;;;;;;;;;;;;
2021/08/07 10:45:35;;;;;;;3.40;1.20;;;22.10;78.80;;;;;;6053167;23;20010;-92
2021/08/07 10:52:34;;;;;;;2.00;1.08;;;22.00;77.80;;;;;;5990750;24;19996;-92
2021/08/07 10:56:14;;;;;;;;;;;;;;;;;;;;;
2021/08/07 11:13:59;;;;;;;4.32;1.10;;;22.00;76.90;;;;;;5885265;24;20018;-94
2021/08/07 13:54:26;;;;;;;1.75;0.70;;;22.80;67.80;;;;;;6193548;22;20032;-88
2021/08/07 13:57:28;;;;;;;2.50;1.02;;;22.90;68.00;;;;;;6255438;22;20062;-88
2021/08/07 14:00:40;;;;;;;;;;;;;;;;;;;;;
2021/08/07 14:03:24;;;;;;;1.87;0.70;;;22.90;67.30;;;;;;6258675;22;20441;-88
2021/08/07 14:06:21;;;;;;;1.83;0.90;;;22.90;67.50;;;;;;6253696;22;20713;-91
2021/08/07 14:09:02;;;;;;;;;;;;;;;;;;;;;
2021/08/07 14:11:41;;;;;;;1.08;0.60;;;22.80;66.40;;;;;;6282177;22;20477;-89
2021/08/07 14:14:17;;;;;;;;;;;;;;;;;;;;;
2021/08/07 14:16:55;;;;;;;2.90;1.80;;;22.80;67.90;;;;;;6282517;22;20086;-89
2021/08/07 14:19:40;;;;;;;2.30;1.27;;;22.80;68.30;;;;;;6256122;22;20006;-89
2021/08/07 14:22:22;;;;;;;;;;;;;;;;;;;;;
2021/08/07 14:25:00;;;;;;;;;;;;;;;;;;;;;
2021/08/07 14:27:38;;;;;;;3.00;0.90;;;22.90;68.90;;;;;;6282476;22;20429;-89
2021/08/07 14:30:07;;;;;;;1.58;1.00;;;22.90;69.10;;;;;;6254938;22;20008;-89
2021/08/07 14:33:03;;;;;;;1.20;0.70;;;23.00;68.90;;;;;;6259260;22;20011;-92
2021/08/07 14:35:28;;;;;;;2.35;0.90;;;23.00;68.80;;;;;;6223023;22;20043;-83
2021/08/07 14:37:54;;;;;;;2.15;0.60;;;23.00;68.60;;;;;;6198753;22;20010;-83
2021/08/07 14:40:30;;;;;;;;;;;;;;;;;;;;;
2021/08/07 14:42:56;;;;;;;2.10;0.90;;;22.90;68.20;;;;;;6277003;22;20092;-85
2021/08/07 14:45:30;;;;;;;1.95;0.70;;;22.90;68.20;;;;;;6250612;22;20039;-85
2021/08/07 14:48:03;;;;;;;4.70;1.17;;;22.90;68.00;;;;;;6248193;22;20488;-85
2021/08/07 14:50:34;;;;;;;1.88;0.80;;;23.00;67.60;;;;;;6249038;22;20086;-84
2021/08/07 14:53:00;;;;;;;3.25;1.10;;;22.90;67.60;;;;;;6248808;22;20329;-84
2021/08/07 14:55:26;;;;;;;3.55;0.80;;;22.90;67.70;;;;;;6274742;22;20019;-84
2021/08/07 14:58:05;;;;;;;;;;;;;;;;;;;;;
2021/08/07 15:00:31;;;;;;;3.45;0.90;;;22.80;68.30;;;;;;6252375;22;20079;-85
2021/08/07 15:03:04;;;;;;;3.65;1.00;;;22.80;68.60;;;;;;6277091;22;20031;-84
2021/08/07 15:05:35;;;;;;;2.00;0.95;;;22.80;68.70;;;;;;6251492;22;20008;-83
2021/08/07 15:08:05;;;;;;;2.65;0.80;;;22.70;68.70;;;;;;6227607;22;20425;-84
2021/08/07 15:10:31;;;;;;;1.73;0.90;;;22.70;68.80;;;;;;6252120;22;20004;-84
2021/08/07 15:13:17;;;;;;;3.38;0.75;;;22.70;68.60;;;;;;6251204;22;20382;-84
2021/08/07 15:15:43;;;;;;;2.17;1.00;;;22.70;68.70;;;;;;6253342;22;20011;-84
2021/08/07 15:18:09;;;;;;;3.25;1.13;;;22.70;69.00;;;;;;6252745;22;20004;-85
2021/08/07 15:20:37;;;;;;;2.55;0.70;;;22.70;68.90;;;;;;6249647;22;20004;-83
2021/08/07 15:23:13;;;;;;;2.80;0.80;;;22.60;68.20;;;;;;6281039;22;20070;-84
2021/08/07 15:25:51;;;;;;;;;;;;;;;;;;;;;
2021/08/07 15:28:19;;;;;;;3.28;1.08;;;22.60;68.40;;;;;;6252859;22;20075;-84
2021/08/07 15:30:48;;;;;;;2.65;0.90;;;22.50;68.40;;;;;;6224393;22;20008;-84
2021/08/07 15:33:25;;;;;;;2.03;0.80;;;22.50;68.60;;;;;;6253571;22;20390;-85
2021/08/07 15:35:53;;;;;;;2.65;0.90;;;22.50;68.30;;;;;;6246873;22;20664;-84
2021/08/07 15:38:24;;;;;;;3.22;0.70;;;22.40;68.50;;;;;;6249623;22;20047;-84
2021/08/07 15:40:55;;;;;;;1.65;0.80;;;22.40;68.70;;;;;;6277155;22;20011;-83
2021/08/07 15:43:24;;;;;;;1.95;0.85;;;22.30;68.80;;;;;;6278208;22;19996;-85
